Terminal Aerodrome Forecast
Issued by NWS

Home | Current Version | Previous Version | Text Only | Print | Product List | Glossary On
Versions: 1 2 3 4 5 6 7 8 9 10 11 12 13 14 15 16 17
000
FTUS46 KLOX 242354
TAFLGB
TAF
KLGB 242354Z 2500/2524 19010KT P6SM SCT040 SCT070
     FM250100 29008KT P6SM SCT017
     FM250700 VRB04KT P6SM BKN022
     FM251100 17004KT P6SM OVC027
     FM251300 17006KT P6SM BKN027
     FM251800 20009KT P6SM SCT035=

USA.gov is the U.S. government's official web portal to all federal, state and local government web resources and services.